createdAt,value
2022-12-11T00:09:25.148Z,1.70
2022-12-11T00:26:46.851Z,1.60
2022-12-11T00:44:19.054Z,1.50
2022-12-11T00:59:12.402Z,-0.30
2022-12-11T01:11:53.919Z,1.60
2022-12-11T01:14:29.270Z,1.60
2022-12-11T01:17:00.808Z,1.60
2022-12-11T01:32:00.347Z,1.60
2022-12-11T01:34:30.719Z,1.60
2022-12-11T01:41:58.949Z,1.50
2022-12-11T01:45:04.771Z,-0.50
2022-12-11T01:47:34.659Z,1.50
2022-12-11T02:02:30.719Z,1.50
2022-12-11T02:05:00.991Z,1.50
2022-12-11T02:07:40.976Z,1.50
2022-12-11T02:10:12.339Z,1.40
2022-12-11T02:12:47.559Z,1.40
2022-12-11T02:15:22.678Z,1.40
2022-12-11T02:17:58.830Z,1.40
2022-12-11T02:20:35.523Z,1.40
2022-12-11T02:23:50.278Z,4.90
2022-12-11T02:26:36.356Z,1.40
2022-12-11T02:29:09.687Z,1.40
2022-12-11T02:31:43.609Z,1.40
2022-12-11T02:34:14.839Z,1.40
2022-12-11T02:36:48.650Z,1.40
2022-12-11T02:39:18.648Z,1.40
2022-12-11T02:41:50.509Z,1.30
2022-12-11T02:44:23.691Z,1.40
2022-12-11T02:46:53.110Z,1.40
2022-12-11T02:49:24.491Z,1.30
2022-12-11T02:51:55.894Z,1.40
2022-12-11T02:54:28.169Z,1.50
2022-12-11T02:57:02.914Z,1.40
2022-12-11T02:59:37.418Z,1.40
2022-12-11T03:02:06.867Z,1.40
2022-12-11T03:04:37.451Z,1.40
2022-12-11T03:07:13.061Z,1.50
2022-12-11T03:09:42.091Z,1.40
2022-12-11T03:12:13.530Z,1.40
2022-12-11T03:14:44.603Z,1.40
2022-12-11T03:17:17.183Z,1.40
2022-12-11T03:19:52.445Z,1.40
2022-12-11T03:22:25.558Z,1.40
2022-12-11T03:25:01.023Z,1.40
2022-12-11T03:27:35.978Z,1.40
2022-12-11T03:30:08.578Z,1.40
2022-12-11T03:32:42.260Z,1.40
2022-12-11T03:35:15.794Z,1.40
2022-12-11T03:37:46.012Z,1.40
2022-12-11T03:40:17.846Z,1.40
2022-12-11T03:42:49.809Z,1.40
2022-12-11T03:45:22.279Z,0.40
2022-12-11T03:47:53.760Z,1.40
2022-12-11T03:50:26.158Z,1.40
2022-12-11T03:52:56.066Z,1.40
2022-12-11T04:00:24.975Z,1.30
2022-12-11T04:10:40.404Z,1.30
2022-12-11T04:15:38.823Z,1.30
2022-12-11T04:18:25.303Z,1.40
2022-12-11T04:21:12.095Z,1.40
2022-12-11T04:31:25.201Z,1.40
2022-12-11T04:46:22.584Z,1.30
2022-12-11T04:48:57.356Z,1.30
2022-12-11T05:01:22.428Z,1.20
2022-12-11T05:03:52.405Z,1.20
2022-12-11T05:13:47.208Z,2.50
2022-12-11T05:16:17.538Z,1.20
2022-12-11T05:21:17.975Z,1.20
2022-12-11T05:26:19.545Z,1.20
2022-12-11T05:31:18.871Z,1.20
2022-12-11T05:33:50.242Z,1.20
2022-12-11T05:36:22.257Z,1.20
2022-12-11T05:41:22.185Z,1.20
2022-12-11T05:46:21.321Z,1.10
2022-12-11T05:48:52.130Z,1.20
2022-12-11T05:51:22.116Z,1.20
2022-12-11T05:53:52.616Z,1.20
2022-12-11T05:56:23.399Z,1.20
2022-12-11T06:01:23.387Z,1.20
2022-12-11T06:06:22.681Z,1.10
2022-12-11T06:08:56.035Z,1.70
2022-12-11T06:18:58.024Z,1.00
2022-12-11T06:21:32.005Z,1.00
2022-12-11T06:24:02.428Z,1.00
2022-12-11T06:26:32.323Z,0.90
2022-12-11T06:36:29.263Z,0.90
2022-12-11T07:02:32.796Z,0.70
2022-12-11T07:07:43.130Z,1.50
2022-12-11T07:13:24.945Z,0.60
2022-12-11T07:16:43.679Z,0.60
2022-12-11T07:26:08.042Z,0.40
2022-12-11T07:28:39.055Z,-1.00
2022-12-11T07:31:15.041Z,-1.10
2022-12-11T07:36:16.515Z,0.90
2022-12-11T07:41:22.925Z,0.40
2022-12-11T07:44:01.010Z,0.40
2022-12-11T07:46:34.716Z,-0.70
2022-12-11T07:51:39.564Z,0.40
2022-12-11T07:54:15.717Z,0.40
2022-12-11T07:57:21.633Z,0.30
2022-12-11T08:07:20.640Z,0.30
2022-12-11T08:14:48.496Z,0.40
2022-12-11T08:17:29.598Z,0.40
2022-12-11T08:30:06.191Z,2.60
2022-12-11T08:32:52.563Z,-1.00
2022-12-11T08:43:23.289Z,0.40
2022-12-11T08:47:00.307Z,0.40
2022-12-11T08:49:34.182Z,0.40
2022-12-11T09:01:59.105Z,0.60
2022-12-11T09:17:05.804Z,1.50
2022-12-11T09:32:11.390Z,2.40
2022-12-11T09:42:22.780Z,2.80
2022-12-11T09:44:54.939Z,3.00
2022-12-11T09:47:31.659Z,3.10
2022-12-11T09:50:05.651Z,3.30
2022-12-11T09:52:41.720Z,2.20
2022-12-11T09:55:17.844Z,3.60
2022-12-11T09:58:44.260Z,3.70
2022-12-11T10:04:48.277Z,4.00
2022-12-11T10:12:01.918Z,4.20
2022-12-11T10:14:41.909Z,4.20
2022-12-11T10:17:26.750Z,4.20
2022-12-11T10:20:26.710Z,4.30
2022-12-11T10:26:51.309Z,4.50
2022-12-11T10:35:33.917Z,4.60
2022-12-11T10:38:14.278Z,4.70
2022-12-11T10:41:06.630Z,4.80
2022-12-11T10:43:39.181Z,4.90
2022-12-11T11:47:51.074Z,3.90
2022-12-11T11:50:26.695Z,3.90
2022-12-11T11:53:08.052Z,3.80
2022-12-11T11:55:51.626Z,3.70
2022-12-11T11:58:24.623Z,4.60
2022-12-11T12:00:55.861Z,3.60
2022-12-11T12:03:26.757Z,3.50
2022-12-11T12:05:59.590Z,3.50
2022-12-11T12:08:41.061Z,3.50
2022-12-11T12:11:21.016Z,3.50
2022-12-11T12:14:00.155Z,3.50
2022-12-11T12:16:52.804Z,3.50
2022-12-11T12:20:23.539Z,3.50
2022-12-11T12:23:16.665Z,3.50
2022-12-11T12:25:50.697Z,2.70
2022-12-11T12:33:29.572Z,3.30
2022-12-11T12:36:13.234Z,3.30
2022-12-11T12:38:56.015Z,3.20
2022-12-11T12:41:38.060Z,3.10
2022-12-11T12:44:33.340Z,3.10
2022-12-11T12:53:43.762Z,2.80
2022-12-11T13:25:47.049Z,2.60
2022-12-11T13:28:27.620Z,2.60
2022-12-11T13:31:48.639Z,2.60
2022-12-11T13:34:26.859Z,2.70
2022-12-11T13:36:58.601Z,2.70
2022-12-11T13:39:29.131Z,2.60
2022-12-11T13:42:07.055Z,2.60
2022-12-11T13:44:40.497Z,2.60
2022-12-11T13:47:18.204Z,2.60
2022-12-11T13:49:52.287Z,2.70
2022-12-11T13:52:23.445Z,2.60
2022-12-11T13:54:59.269Z,2.60
2022-12-11T13:57:29.694Z,4.40
2022-12-11T14:00:01.627Z,2.60
2022-12-11T14:02:36.759Z,2.60
2022-12-11T14:05:34.364Z,2.60
2022-12-11T14:09:13.977Z,2.60
2022-12-11T14:11:57.682Z,2.70
2022-12-11T14:14:57.015Z,2.70
2022-12-11T14:17:31.110Z,2.60
2022-12-11T14:20:02.399Z,2.60
2022-12-11T14:22:35.799Z,2.50
2022-12-11T14:25:29.616Z,2.50
2022-12-11T14:30:37.086Z,2.50
2022-12-11T14:33:09.261Z,2.40
2022-12-11T14:35:45.866Z,2.40
2022-12-11T14:38:23.573Z,2.40
2022-12-11T14:40:56.190Z,2.40
2022-12-11T14:43:31.605Z,1.20
2022-12-11T14:46:05.645Z,2.40
2022-12-11T14:48:38.860Z,2.40
2022-12-11T14:51:16.794Z,2.10
2022-12-11T14:53:55.219Z,2.40
2022-12-11T14:56:29.014Z,2.40
2022-12-11T14:59:26.965Z,2.30
2022-12-11T15:02:39.352Z,2.30
2022-12-11T15:05:19.748Z,2.20
2022-12-11T15:08:05.582Z,2.20
2022-12-11T15:10:39.206Z,2.10
2022-12-11T15:13:14.216Z,2.10
2022-12-11T15:15:48.521Z,2.10
2022-12-11T15:18:25.817Z,2.10
2022-12-11T15:20:57.593Z,2.10
2022-12-11T21:10:17.244Z,0.40
2022-12-11T21:12:49.024Z,0.40
2022-12-11T21:20:18.580Z,0.60
2022-12-11T21:25:18.373Z,0.60
2022-12-11T21:35:16.499Z,0.60
2022-12-11T21:40:16.734Z,0.60
2022-12-11T21:55:31.745Z,1.00
2022-12-11T22:12:56.995Z,0.50
2022-12-11T22:27:51.478Z,0.40
2022-12-11T22:30:21.123Z,0.40
2022-12-11T22:47:51.004Z,0.30
2022-12-11T23:00:15.186Z,0.30
2022-12-11T23:05:13.948Z,-0.80
2022-12-11T23:10:12.586Z,0.00
2022-12-11T23:15:11.566Z,-1.40
2022-12-11T23:20:11.556Z,0.10
2022-12-11T23:22:42.049Z,0.20
2022-12-11T23:25:14.692Z,2.90
2022-12-11T23:27:45.081Z,0.20
2022-12-11T23:30:14.594Z,1.20
2022-12-11T23:32:43.723Z,-3.60
2022-12-11T23:37:42.382Z,0.20
2022-12-11T23:40:14.042Z,0.20
2022-12-11T23:55:10.335Z,0.20
